Time;durP1;ratioP1;P1;durP2;ratioP2;P2;SDS_P1;SDS_P2;PMS_P1;PMS_P2;Temp;Humidity;BMP_temperature;BMP_pressure;BME280_temperature;BME280_humidity;BME280_pressure;Samples;Min_cycle;Max_cycle;Signal;HPM_P1;HPM_P2
2023/02/26 21:10:51;;;;;;;4.33;1.13;;;;;;;-0.42;92.80;96464.56;5094437;27;20526;-72
2023/02/26 21:13:18;;;;;;;1.63;0.90;;;;;;;-0.58;94.15;96463.97;5093559;28;20195;-74
2023/02/26 21:15:44;;;;;;;1.20;0.90;;;;;;;-0.69;93.64;96463.88;5094586;28;20199;-75
2023/02/26 21:18:11;;;;;;;3.53;1.23;;;;;;;-0.73;94.27;96465.00;5094550;28;20214;-76
2023/02/26 21:20:37;;;;;;;1.07;0.90;;;;;;;-0.59;94.31;96478.69;5093837;28;20199;-74
2023/02/26 21:23:04;;;;;;;1.70;1.10;;;;;;;-0.59;93.69;96468.34;5093666;28;20211;-74
2023/02/26 21:25:31;;;;;;;1.80;0.80;;;;;;;-0.52;92.76;96473.91;5093526;28;20217;-75
2023/02/26 21:27:59;;;;;;;1.20;1.10;;;;;;;-0.62;93.22;96475.47;5093445;28;20203;-74
2023/02/26 21:30:27;;;;;;;1.53;0.87;;;;;;;-0.60;93.07;96478.75;5093340;28;20219;-76
2023/02/26 21:32:54;;;;;;;1.83;1.33;;;;;;;-0.74;93.63;96475.47;5093755;28;21207;-74
2023/02/26 21:35:20;;;;;;;2.03;1.07;;;;;;;-0.73;93.82;96469.38;5092773;28;20203;-75
2023/02/26 21:37:47;;;;;;;1.20;0.90;;;;;;;-0.85;93.17;96471.03;5093858;28;20589;-75
2023/02/26 21:40:15;;;;;;;1.67;1.00;;;;;;;-0.71;93.39;96472.66;5093366;28;20199;-74
2023/02/26 21:42:42;;;;;;;1.37;1.10;;;;;;;-0.84;93.46;96466.66;5093478;28;20223;-76
2023/02/26 21:45:11;;;;;;;1.03;0.93;;;;;;;-0.81;93.44;96467.28;5096251;28;20218;-75
2023/02/26 21:47:38;;;;;;;1.43;1.13;;;;;;;-0.90;93.34;96469.69;5096485;28;20200;-75
2023/02/26 21:50:06;;;;;;;0.90;0.90;;;;;;;-0.77;93.83;96466.16;5094883;28;20229;-75
2023/02/26 21:52:32;;;;;;;1.57;1.10;;;;;;;-0.85;92.94;96463.25;5095238;28;20225;-74
2023/02/26 21:54:59;;;;;;;1.37;1.00;;;;;;;-0.87;93.00;96472.06;5090346;28;20199;-75
2023/02/26 21:57:26;;;;;;;1.13;1.03;;;;;;;-0.98;93.29;96467.59;5092802;28;20200;-76
2023/02/26 21:59:53;;;;;;;1.07;0.97;;;;;;;-1.13;94.43;96470.38;5092442;28;20202;-74
2023/02/26 22:02:21;;;;;;;0.83;0.73;;;;;;;-1.03;94.50;96461.91;5092704;28;20244;-73
2023/02/26 22:04:47;;;;;;;0.70;0.70;;;;;;;-1.15;93.71;96465.28;5091435;28;20205;-73
2023/02/26 22:07:14;;;;;;;1.83;1.20;;;;;;;-1.09;93.67;96472.66;5093471;28;20239;-74
2023/02/26 22:09:42;;;;;;;0.70;0.70;;;;;;;-1.17;93.91;96471.53;5091865;28;20253;-74
2023/02/26 22:12:08;;;;;;;0.70;0.70;;;;;;;-1.09;93.93;96472.66;5093031;28;20233;-74
2023/02/26 22:14:35;;;;;;;0.60;0.60;;;;;;;-1.26;94.95;96471.28;5093929;28;20198;-74
2023/02/26 22:17:02;;;;;;;0.93;0.70;;;;;;;-1.19;93.98;96476.75;5096171;28;20210;-75
2023/02/26 22:19:30;;;;;;;0.80;0.80;;;;;;;-1.12;94.28;96478.03;5094838;28;20199;-73
2023/02/26 22:21:56;;;;;;;0.70;0.70;;;;;;;-1.27;95.35;96472.19;5082864;28;20956;-73
2023/02/26 22:24:23;;;;;;;1.23;1.03;;;;;;;-1.14;94.67;96473.91;5080547;28;20206;-75
2023/02/26 22:26:49;;;;;;;0.60;0.60;;;;;;;-1.16;94.76;96473.16;5081273;28;20654;-75
2023/02/26 22:29:16;;;;;;;0.80;0.80;;;;;;;-1.15;94.32;96474.81;5082250;28;20227;-75
2023/02/26 22:31:42;;;;;;;1.17;1.03;;;;;;;-1.09;96.29;96483.00;5081313;28;20224;-74
2023/02/26 22:34:09;;;;;;;2.43;1.40;;;;;;;-1.26;96.60;96479.88;5081423;28;20206;-74
2023/02/26 22:36:37;;;;;;;1.20;1.10;;;;;;;-1.19;97.17;96473.38;5081461;28;20203;-75
2023/02/26 22:39:04;;;;;;;0.97;0.93;;;;;;;-1.13;95.72;96473.78;5081709;28;20207;-75
2023/02/26 22:41:31;;;;;;;0.87;0.80;;;;;;;-1.11;96.47;96478.84;5080002;28;20217;-75
2023/02/26 22:43:58;;;;;;;1.90;1.30;;;;;;;-1.11;95.29;96473.69;5080314;28;20211;-75
2023/02/26 22:46:27;;;;;;;1.50;1.20;;;;;;;-0.97;95.38;96471.84;5080798;28;20210;-75
2023/02/26 22:48:53;;;;;;;0.93;0.77;;;;;;;-1.01;96.04;96470.38;5080918;28;20214;-73
2023/02/26 22:51:20;;;;;;;1.30;0.93;;;;;;;-1.01;95.01;96480.72;5085552;28;20230;-75
2023/02/26 22:53:48;;;;;;;1.30;1.20;;;;;;;-1.10;94.20;96481.31;5083245;28;21006;-72
2023/02/26 22:56:14;;;;;;;2.47;0.80;;;;;;;-1.02;94.85;96489.44;5085753;28;20199;-74
2023/02/26 22:58:41;;;;;;;1.33;0.73;;;;;;;-1.15;95.27;96492.91;5084316;28;20211;-75
2023/02/26 23:01:09;;;;;;;6.87;1.10;;;;;;;-1.04;94.84;96498.22;5080167;28;20590;-74
2023/02/26 23:03:35;;;;;;;1.50;1.37;;;;;;;-1.27;95.67;96498.03;5080061;28;20195;-75
2023/02/26 23:06:02;;;;;;;1.17;0.87;;;;;;;-1.26;95.11;96497.13;5079984;28;20217;-75
2023/02/26 23:08:28;;;;;;;3.40;1.20;;;;;;;-1.18;95.70;96493.13;5080134;28;20666;-75
2023/02/26 23:10:57;;;;;;;1.40;1.30;;;;;;;-1.22;95.04;96491.69;5080145;28;20232;-73
2023/02/26 23:13:24;;;;;;;0.97;0.90;;;;;;;-1.11;95.85;96492.63;5079543;28;20574;-73
2023/02/26 23:15:51;;;;;;;1.17;0.70;;;;;;;-1.17;95.08;96495.59;5080329;28;20209;-76
2023/02/26 23:18:17;;;;;;;1.00;0.90;;;;;;;-1.26;95.17;96500.56;5079145;28;20207;-76
2023/02/26 23:20:44;;;;;;;1.70;1.10;;;;;;;-1.23;95.22;96500.34;5079878;28;20200;-74
2023/02/26 23:23:11;;;;;;;1.30;1.20;;;;;;;-1.39;94.69;96506.63;5079427;28;20218;-76
2023/02/26 23:25:37;;;;;;;1.07;0.73;;;;;;;-1.14;95.57;96502.34;5079197;28;20204;-76
2023/02/26 23:28:05;;;;;;;17.07;1.73;;;;;;;-1.03;94.14;96497.25;5079346;28;20575;-73
2023/02/26 23:30:32;;;;;;;1.37;1.17;;;;;;;-1.16;94.47;96507.59;5079620;28;20244;-74
2023/02/26 23:32:59;;;;;;;1.87;1.30;;;;;;;-1.23;94.93;96510.69;5078102;28;20220;-75
2023/02/26 23:35:26;;;;;;;2.10;1.37;;;;;;;-1.29;94.81;96510.25;5077852;28;20205;-75
2023/02/26 23:37:52;;;;;;;1.07;0.80;;;;;;;-1.31;94.57;96512.09;5079113;28;20215;-75
2023/02/26 23:40:19;;;;;;;0.90;0.90;;;;;;;-1.28;94.26;96504.16;5079104;28;20200;-74
2023/02/26 23:42:45;;;;;;;4.20;1.17;;;;;;;-1.07;93.18;96493.22;5078711;28;20234;-73
2023/02/26 23:45:13;;;;;;;0.97;0.90;;;;;;;-1.14;94.26;96497.97;5077925;28;20208;-74
2023/02/26 23:47:41;;;;;;;3.13;1.00;;;;;;;-1.26;94.32;96495.38;5079133;28;20992;-74
2023/02/26 23:50:09;;;;;;;1.70;1.30;;;;;;;-1.18;94.21;96493.13;5078955;28;20641;-76
2023/02/26 23:52:36;;;;;;;1.23;0.93;;;;;;;-1.19;93.89;96489.69;5078606;28;20232;-75
2023/02/26 23:55:02;;;;;;;3.43;1.23;;;;;;;-1.30;95.28;96493.91;5078241;28;20202;-75
2023/02/26 23:57:29;;;;;;;1.27;1.17;;;;;;;-1.19;93.95;96496.63;5078301;28;20203;-73
2023/02/26 23:59:55;;;;;;;1.23;1.10;;;;;;;-1.26;95.31;96499.72;5078667;28;20207;-72
